Bangor, MI (49013)

12:22 PM EDT on May 03, 2015 (GMT -0400)
OverGrown Acres Farm | | Change Station
CLOSE
Current Station
Personal Weather Station
Location: Lawrence, MI
Elevation: 696 ft
Nearby Weather Stations

Elev 696 ft 42.23 °N, 86.06 °W | Updated 2 minutes ago

Mostly Cloudy
Mostly Cloudy
75.1 °F
Feels Like 77 °F
N
7.0
Wind Variable Wind from South
Gusts 11.0 mph

Today
High -- | Low -- °F
--% Chance of Precip.
Yesterday
High -- | Low -- °F
Precip. -- in
6:37 AM 8:45 PM
Full, 100% visible
Pressure 30.00 in
Visibility 10.0 miles
Clouds Scattered Clouds 11000 ft
Heat Index 77 °F
Dew Point 46 °F
Humidity 35%
Rainfall 0.00 in
Snow Depth Not available.
UV 5.8 out of 12
Pollen 11.20 out of 12
Air Quality Not available.
Flu Activity Regional
METAR KLWA 031614Z AUTO 19013G17KT 10SM SCT110 25/03 A3000 RMK AO2 T02470033

More Conditions Fewer Conditions

Pressure 30.00 in
Visibility 10.0 miles
Clouds Scattered Clouds 11000 ft
Heat Index 77 °F
Dew Point 46 °F
Humidity 35%
Rainfall 0.00 in
Snow Depth Not available.
UV 5.8 out of 12
Pollen 11.20 out of 12
Air Quality Not available.
Flu Activity Regional
METAR KLWA 031614Z AUTO 19013G17KT 10SM SCT110 25/03 A3000 RMK AO2 T02470033

More Conditions Fewer Conditions

Nepal has a long way to go to dig out and rebuild from a devastating earthquake. We have teamed up with several charities and organizations to make contributing to the relief effort as easy as possible.
How you can help: Portlight Strategies | Red Cross

10-Day Weather Forecast

Almanac

Astronomy

May. 03, 2015 Rise Set
Actual Time
Civil Twilight
Nautical Twilight
Astronomical Twilight
Moon
Length of Visible Light
Length of Day
Tomorrow will be .
, % of the Moon is Illuminated

Today's Extremes

State Highs State Lows

Community

WunderPhotos

Upload Photos

1,818,264 photos uploaded!

WunderBlogs® & News

Nearby

Air Quality

  Air Quality AQ Index Pollutant
Not available.

Snow Depth

Station Depth Elevation

Earthquake Activity

City Distance Mag. Time & Date
Minimum magnitude displayed is 2.5.

Coastal Water Temperatures

Place Temperature

Stations

Nearby Weather Stations

Station Location Temp. Windchill Dew Point Humidity Wind Precip. Elev Updated Type